CWH5 weather

Wingham (Inglis Field) Airport
Wingham, Ontario, Canada

Public forecast

Using degrees Celsius for public forecast. Weather courtesy of forecast.io.

Closest aviation weather report (METAR) to Wingham (Inglis Field) Airport

Closest report is Waterloo Airport, 49.1 nm (91.0 km) ESE. Retrieved 2020/04/02 12:00 UTC (28 minutes ago):

CYKF 021200Z AUTO 31008KT 9SM CLR 01/M01 A3002 RMK SLP175

Closest aviation forecast (TAF) to Wingham (Inglis Field) Airport

Closest forecast is Waterloo Airport, 49.1 nm (91.0 km) ESE. Retrieved 2020/04/02 08:42 UTC (4 hours ago):

TAF CYKF 020738Z 0208/0220 31006KT P6SM FEW060 FM021500 35010G20KT P6SM FEW030 RMK FCST BASED ON AUTO OBS NXT FCST BY 021400Z